sensor_id;sensor_type;location;lat;lon;timestamp;pressure;altitude;pressure_sealevel;temperature;humidity
58092;BME280;43896;48.178;11.578;2023-05-02T00:00:49;95893.34;;;11.53;77.02
58092;BME280;43896;48.178;11.578;2023-05-02T00:03:14;95913.47;;;11.79;76.57
58092;BME280;43896;48.178;11.578;2023-05-02T00:05:41;95867.50;;;11.32;78.03
58092;BME280;43896;48.178;11.578;2023-05-02T00:08:06;95870.97;;;11.41;77.43
58092;BME280;43896;48.178;11.578;2023-05-02T00:10:32;95894.19;;;11.62;76.96
58092;BME280;43896;48.178;11.578;2023-05-02T00:12:58;95921.06;;;11.82;76.74
58092;BME280;43896;48.178;11.578;2023-05-02T00:15:23;95868.34;;;11.49;77.00
58092;BME280;43896;48.178;11.578;2023-05-02T00:17:48;95899.47;;;11.62;77.05
58092;BME280;43896;48.178;11.578;2023-05-02T00:20:14;95882.50;;;11.56;76.81
58092;BME280;43896;48.178;11.578;2023-05-02T00:22:39;95873.31;;;11.60;76.63
58092;BME280;43896;48.178;11.578;2023-05-02T00:25:05;95873.13;;;11.62;76.27
58092;BME280;43896;48.178;11.578;2023-05-02T00:27:31;95875.75;;;11.62;76.62
58092;BME280;43896;48.178;11.578;2023-05-02T00:29:57;95908.22;;;11.79;76.59
58092;BME280;43896;48.178;11.578;2023-05-02T00:32:24;95883.66;;;11.54;76.52
58092;BME280;43896;48.178;11.578;2023-05-02T00:34:50;95886.28;;;11.62;75.63
58092;BME280;43896;48.178;11.578;2023-05-02T00:37:15;95856.44;;;11.20;76.98
58092;BME280;43896;48.178;11.578;2023-05-02T00:39:41;95854.31;;;11.24;77.49
58092;BME280;43896;48.178;11.578;2023-05-02T00:42:06;95856.66;;;11.35;76.81
58092;BME280;43896;48.178;11.578;2023-05-02T00:44:31;95851.69;;;11.32;76.59
58092;BME280;43896;48.178;11.578;2023-05-02T00:46:59;95881.81;;;11.38;76.71
58092;BME280;43896;48.178;11.578;2023-05-02T00:49:25;95911.34;;;11.66;76.18
58092;BME280;43896;48.178;11.578;2023-05-02T00:51:52;95829.47;;;11.18;76.01
58092;BME280;43896;48.178;11.578;2023-05-02T00:54:18;95846.25;;;11.25;76.32
58092;BME280;43896;48.178;11.578;2023-05-02T00:56:43;95860.59;;;11.31;76.20
58092;BME280;43896;48.178;11.578;2023-05-02T00:59:09;95915.78;;;11.66;76.28
58092;BME280;43896;48.178;11.578;2023-05-02T01:02:21;95917.41;;;11.58;76.19
58092;BME280;43896;48.178;11.578;2023-05-02T01:05:04;95915.78;;;11.57;76.02
58092;BME280;43896;48.178;11.578;2023-05-02T01:12:46;95876.38;;;11.23;75.65
58092;BME280;43896;48.178;11.578;2023-05-02T01:15:18;95931.72;;;11.48;76.24
58092;BME280;43896;48.178;11.578;2023-05-02T01:17:46;95921.50;;;11.44;76.33
58092;BME280;43896;48.178;11.578;2023-05-02T01:20:16;95919.19;;;11.50;75.54
58092;BME280;43896;48.178;11.578;2023-05-02T01:22:44;95888.72;;;11.31;75.86
58092;BME280;43896;48.178;11.578;2023-05-02T01:25:28;95923.69;;;11.57;75.44
58092;BME280;43896;48.178;11.578;2023-05-02T01:30:49;95929.19;;;11.21;76.38
58092;BME280;43896;48.178;11.578;2023-05-02T01:33:16;95869.69;;;10.51;78.01
58092;BME280;43896;48.178;11.578;2023-05-02T01:35:45;95905.22;;;10.98;77.34
58092;BME280;43896;48.178;11.578;2023-05-02T01:38:14;95892.06;;;10.98;77.22
58092;BME280;43896;48.178;11.578;2023-05-02T01:40:43;95899.00;;;10.99;76.19
58092;BME280;43896;48.178;11.578;2023-05-02T01:43:11;95884.53;;;10.95;76.34
58092;BME280;43896;48.178;11.578;2023-05-02T01:45:37;95873.19;;;11.03;75.86
58092;BME280;43896;48.178;11.578;2023-05-02T01:48:05;95949.16;;;11.40;75.91
58092;BME280;43896;48.178;11.578;2023-05-02T01:50:33;95878.72;;;10.83;76.54
58092;BME280;43896;48.178;11.578;2023-05-02T01:52:59;95854.50;;;10.72;76.08
58092;BME280;43896;48.178;11.578;2023-05-02T01:55:26;95894.75;;;11.06;75.92
58092;BME280;43896;48.178;11.578;2023-05-02T01:57:53;95882.56;;;10.97;75.62
58092;BME280;43896;48.178;11.578;2023-05-02T02:00:20;95943.63;;;11.17;77.14
58092;BME280;43896;48.178;11.578;2023-05-02T02:02:46;95871.19;;;10.54;77.31
58092;BME280;43896;48.178;11.578;2023-05-02T02:05:13;95879.00;;;10.72;76.19
58092;BME280;43896;48.178;11.578;2023-05-02T02:07:39;95938.38;;;11.17;76.00
58092;BME280;43896;48.178;11.578;2023-05-02T02:10:05;95906.22;;;10.97;75.91
58092;BME280;43896;48.178;11.578;2023-05-02T02:12:59;95909.06;;;11.04;75.64
58092;BME280;43896;48.178;11.578;2023-05-02T02:15:27;95915.59;;;11.00;75.41
58092;BME280;43896;48.178;11.578;2023-05-02T02:20:29;95889.59;;;10.88;75.28
58092;BME280;43896;48.178;11.578;2023-05-02T02:22:57;95905.38;;;10.88;75.78
58092;BME280;43896;48.178;11.578;2023-05-02T02:25:23;95921.03;;;10.98;75.49
58092;BME280;43896;48.178;11.578;2023-05-02T02:27:51;95921.53;;;11.02;74.90
58092;BME280;43896;48.178;11.578;2023-05-02T02:30:16;95916.38;;;10.84;75.82
58092;BME280;43896;48.178;11.578;2023-05-02T02:32:41;95908.81;;;10.89;75.17
58092;BME280;43896;48.178;11.578;2023-05-02T02:35:07;95955.34;;;11.23;75.37
58092;BME280;43896;48.178;11.578;2023-05-02T02:37:40;95920.22;;;10.98;75.06
58092;BME280;43896;48.178;11.578;2023-05-02T02:42:51;95971.34;;;11.30;75.44
58092;BME280;43896;48.178;11.578;2023-05-02T02:47:56;95916.19;;;10.51;76.69
58092;BME280;43896;48.178;11.578;2023-05-02T02:53:02;95929.69;;;10.82;76.00
58092;BME280;43896;48.178;11.578;2023-05-02T03:01:02;95951.44;;;10.93;75.63
58092;BME280;43896;48.178;11.578;2023-05-02T03:03:29;95905.59;;;10.69;75.14
58092;BME280;43896;48.178;11.578;2023-05-02T03:05:56;95897.69;;;10.61;75.44
58092;BME280;43896;48.178;11.578;2023-05-02T03:08:23;95934.78;;;10.84;75.13
58092;BME280;43896;48.178;11.578;2023-05-02T03:10:48;95913.81;;;10.66;75.53
58092;BME280;43896;48.178;11.578;2023-05-02T03:13:14;95947.78;;;10.85;75.35
58092;BME280;43896;48.178;11.578;2023-05-02T03:18:16;95991.41;;;10.96;75.52
58092;BME280;43896;48.178;11.578;2023-05-02T03:20:42;95980.72;;;10.98;75.38
58092;BME280;43896;48.178;11.578;2023-05-02T03:23:07;95988.97;;;11.03;75.64
58092;BME280;43896;48.178;11.578;2023-05-02T03:25:33;95946.09;;;10.76;75.64
58092;BME280;43896;48.178;11.578;2023-05-02T03:27:59;95977.22;;;10.89;75.43
58092;BME280;43896;48.178;11.578;2023-05-02T03:30:24;95974.91;;;10.86;75.35
58092;BME280;43896;48.178;11.578;2023-05-02T03:32:50;95998.06;;;10.82;76.72
58092;BME280;43896;48.178;11.578;2023-05-02T03:35:16;95947.88;;;10.05;77.67
58092;BME280;43896;48.178;11.578;2023-05-02T03:37:42;95932.88;;;10.34;76.56
58092;BME280;43896;48.178;11.578;2023-05-02T03:40:07;95912.91;;;10.31;76.02
58092;BME280;43896;48.178;11.578;2023-05-02T03:42:34;96005.66;;;10.85;76.03
58092;BME280;43896;48.178;11.578;2023-05-02T03:45:08;95936.94;;;10.54;75.51
58092;BME280;43896;48.178;11.578;2023-05-02T03:47:34;95940.59;;;10.35;75.41
58092;BME280;43896;48.178;11.578;2023-05-02T03:49:59;95945.59;;;10.46;75.80
58092;BME280;43896;48.178;11.578;2023-05-02T03:52:25;96005.34;;;10.88;75.15
58092;BME280;43896;48.178;11.578;2023-05-02T03:54:51;95919.22;;;10.38;75.10
58092;BME280;43896;48.178;11.578;2023-05-02T03:57:17;95964.03;;;10.55;75.40
58092;BME280;43896;48.178;11.578;2023-05-02T03:59:43;95986.84;;;10.46;76.40
58092;BME280;43896;48.178;11.578;2023-05-02T04:02:12;95940.19;;;10.30;75.49
58092;BME280;43896;48.178;11.578;2023-05-02T04:04:39;96002.72;;;10.62;75.83
58092;BME280;43896;48.178;11.578;2023-05-02T04:07:05;95964.81;;;10.29;76.09
58092;BME280;43896;48.178;11.578;2023-05-02T04:09:32;95960.94;;;10.15;76.49
58092;BME280;43896;48.178;11.578;2023-05-02T04:11:57;96012.63;;;10.42;76.61
58092;BME280;43896;48.178;11.578;2023-05-02T04:14:23;96000.50;;;10.49;76.06
58092;BME280;43896;48.178;11.578;2023-05-02T04:16:49;95975.19;;;10.12;76.48
58092;BME280;43896;48.178;11.578;2023-05-02T04:19:15;95994.34;;;10.41;76.22
58092;BME280;43896;48.178;11.578;2023-05-02T04:21:40;95950.19;;;10.26;75.09
58092;BME280;43896;48.178;11.578;2023-05-02T04:24:07;96006.44;;;10.51;75.78
58092;BME280;43896;48.178;11.578;2023-05-02T04:26:33;95999.47;;;10.06;77.55
58092;BME280;43896;48.178;11.578;2023-05-02T04:28:58;95993.53;;;10.22;76.72
58092;BME280;43896;48.178;11.578;2023-05-02T04:31:23;95973.13;;;9.98;76.85
58092;BME280;43896;48.178;11.578;2023-05-02T04:33:49;96045.50;;;10.28;77.98
58092;BME280;43896;48.178;11.578;2023-05-02T04:36:14;95997.66;;;10.07;77.98
58092;BME280;43896;48.178;11.578;2023-05-02T04:38:40;96005.84;;;10.40;76.16
58092;BME280;43896;48.178;11.578;2023-05-02T04:41:06;95987.78;;;10.01;76.12
58092;BME280;43896;48.178;11.578;2023-05-02T04:43:31;95987.22;;;9.79;78.19
58092;BME280;43896;48.178;11.578;2023-05-02T04:45:56;96062.75;;;10.67;76.48
58092;BME280;43896;48.178;11.578;2023-05-02T04:48:23;95991.88;;;10.39;75.90
58092;BME280;43896;48.178;11.578;2023-05-02T04:50:49;95988.69;;;10.54;75.06
58092;BME280;43896;48.178;11.578;2023-05-02T04:53:15;96028.84;;;10.82;74.75
58092;BME280;43896;48.178;11.578;2023-05-02T04:55:40;96062.66;;;10.50;76.83
58092;BME280;43896;48.178;11.578;2023-05-02T04:58:07;96072.09;;;10.87;75.68
58092;BME280;43896;48.178;11.578;2023-05-02T05:00:32;96065.75;;;10.98;75.24
58092;BME280;43896;48.178;11.578;2023-05-02T05:02:57;96061.44;;;10.89;74.93
58092;BME280;43896;48.178;11.578;2023-05-02T05:05:23;96063.59;;;10.94;74.38
58092;BME280;43896;48.178;11.578;2023-05-02T05:07:48;96093.22;;;11.22;74.43
58092;BME280;43896;48.178;11.578;2023-05-02T05:10:14;96072.94;;;11.14;74.14
58092;BME280;43896;48.178;11.578;2023-05-02T05:12:39;96088.22;;;11.11;74.28
58092;BME280;43896;48.178;11.578;2023-05-02T05:15:05;96104.78;;;11.29;74.56
58092;BME280;43896;48.178;11.578;2023-05-02T05:17:31;96079.09;;;11.23;74.00
58092;BME280;43896;48.178;11.578;2023-05-02T05:19:56;96102.69;;;11.41;73.44
58092;BME280;43896;48.178;11.578;2023-05-02T05:22:22;96081.34;;;11.18;73.29
58092;BME280;43896;48.178;11.578;2023-05-02T05:24:53;96083.84;;;11.19;74.04
58092;BME280;43896;48.178;11.578;2023-05-02T05:27:19;96090.63;;;11.30;73.65
58092;BME280;43896;48.178;11.578;2023-05-02T05:29:45;96108.13;;;11.39;74.17
58092;BME280;43896;48.178;11.578;2023-05-02T05:32:11;96053.25;;;10.92;74.51
58092;BME280;43896;48.178;11.578;2023-05-02T05:34:36;96101.38;;;11.37;73.46
58092;BME280;43896;48.178;11.578;2023-05-02T05:37:02;96060.09;;;11.11;73.46
58092;BME280;43896;48.178;11.578;2023-05-02T05:39:27;96043.28;;;11.04;73.09
58092;BME280;43896;48.178;11.578;2023-05-02T05:41:52;96073.50;;;11.26;72.97
58092;BME280;43896;48.178;11.578;2023-05-02T05:44:21;96053.16;;;11.10;73.19
58092;BME280;43896;48.178;11.578;2023-05-02T05:46:46;96111.59;;;11.40;73.25
58092;BME280;43896;48.178;11.578;2023-05-02T05:49:14;96078.56;;;11.19;73.32
58092;BME280;43896;48.178;11.578;2023-05-02T05:51:39;96059.88;;;11.04;73.51
58092;BME280;43896;48.178;11.578;2023-05-02T05:54:05;96151.84;;;11.58;72.81
58092;BME280;43896;48.178;11.578;2023-05-02T05:56:31;96102.56;;;10.72;75.47
58092;BME280;43896;48.178;11.578;2023-05-02T05:58:56;96105.13;;;11.08;73.89
58092;BME280;43896;48.178;11.578;2023-05-02T06:01:21;96106.31;;;10.87;75.01
58092;BME280;43896;48.178;11.578;2023-05-02T06:03:47;96119.69;;;11.20;74.57
58092;BME280;43896;48.178;11.578;2023-05-02T06:06:12;96111.69;;;11.30;73.79
58092;BME280;43896;48.178;11.578;2023-05-02T06:08:38;96153.72;;;11.66;73.66
58092;BME280;43896;48.178;11.578;2023-05-02T06:11:07;96122.50;;;11.53;73.18
58092;BME280;43896;48.178;11.578;2023-05-02T06:13:33;96165.47;;;11.80;72.98
58092;BME280;43896;48.178;11.578;2023-05-02T06:16:00;96138.91;;;11.73;72.95
58092;BME280;43896;48.178;11.578;2023-05-02T06:18:25;96098.50;;;11.56;72.51
58092;BME280;43896;48.178;11.578;2023-05-02T06:20:51;96170.03;;;12.04;72.74
58092;BME280;43896;48.178;11.578;2023-05-02T06:23:16;96172.84;;;12.03;72.38
58092;BME280;43896;48.178;11.578;2023-05-02T06:25:41;96160.03;;;11.81;73.09
58092;BME280;43896;48.178;11.578;2023-05-02T06:28:07;96182.69;;;11.92;72.72
58092;BME280;43896;48.178;11.578;2023-05-02T06:30:33;96183.81;;;11.63;75.25
58092;BME280;43896;48.178;11.578;2023-05-02T06:32:58;96176.78;;;11.72;74.46
58092;BME280;43896;48.178;11.578;2023-05-02T06:35:24;96107.00;;;11.16;75.56
58092;BME280;43896;48.178;11.578;2023-05-02T06:37:49;96135.66;;;11.45;74.39
58092;BME280;43896;48.178;11.578;2023-05-02T06:40:15;96162.28;;;11.68;73.89
58092;BME280;43896;48.178;11.578;2023-05-02T06:42:40;96183.22;;;12.04;73.53
58092;BME280;43896;48.178;11.578;2023-05-02T06:45:06;96160.63;;;12.01;72.38
58092;BME280;43896;48.178;11.578;2023-05-02T06:47:31;96180.44;;;12.06;72.63
58092;BME280;43896;48.178;11.578;2023-05-02T06:49:57;96158.53;;;12.13;72.47
58092;BME280;43896;48.178;11.578;2023-05-02T06:52:22;96157.56;;;12.14;72.10
58092;BME280;43896;48.178;11.578;2023-05-02T06:54:48;96187.72;;;12.20;72.71
58092;BME280;43896;48.178;11.578;2023-05-02T06:57:14;96155.69;;;12.07;71.83
58092;BME280;43896;48.178;11.578;2023-05-02T06:59:39;96162.25;;;11.94;72.64
58092;BME280;43896;48.178;11.578;2023-05-02T07:02:05;96163.94;;;12.04;72.44
58092;BME280;43896;48.178;11.578;2023-05-02T07:04:30;96170.19;;;12.03;71.44
58092;BME280;43896;48.178;11.578;2023-05-02T07:06:56;96192.06;;;12.29;71.81
58092;BME280;43896;48.178;11.578;2023-05-02T07:09:21;96155.88;;;12.05;72.25
58092;BME280;43896;48.178;11.578;2023-05-02T07:11:46;96164.50;;;12.15;71.56
58092;BME280;43896;48.178;11.578;2023-05-02T07:14:12;96149.53;;;12.32;71.70
58092;BME280;43896;48.178;11.578;2023-05-02T07:16:37;96160.47;;;12.54;71.72
58092;BME280;43896;48.178;11.578;2023-05-02T07:19:02;96174.63;;;11.68;75.46
58092;BME280;43896;48.178;11.578;2023-05-02T07:21:30;96205.31;;;12.54;72.64
58092;BME280;43896;48.178;11.578;2023-05-02T07:23:56;96207.34;;;12.76;71.59
58092;BME280;43896;48.178;11.578;2023-05-02T07:26:22;96206.53;;;12.84;70.76
58092;BME280;43896;48.178;11.578;2023-05-02T07:28:47;96209.50;;;12.89;70.64
58092;BME280;43896;48.178;11.578;2023-05-02T07:31:13;96208.31;;;12.84;71.13
58092;BME280;43896;48.178;11.578;2023-05-02T07:33:38;96211.63;;;12.86;70.52
58092;BME280;43896;48.178;11.578;2023-05-02T07:36:03;96218.56;;;12.87;70.35
58092;BME280;43896;48.178;11.578;2023-05-02T07:38:29;96214.44;;;12.92;69.75
58092;BME280;43896;48.178;11.578;2023-05-02T07:40:57;96200.09;;;12.87;70.56
58092;BME280;43896;48.178;11.578;2023-05-02T07:43:22;96213.31;;;13.03;70.04
58092;BME280;43896;48.178;11.578;2023-05-02T07:45:48;96214.44;;;12.84;71.81
58092;BME280;43896;48.178;11.578;2023-05-02T07:48:13;96199.28;;;12.94;70.14
58092;BME280;43896;48.178;11.578;2023-05-02T07:50:38;96214.97;;;13.12;69.19
58092;BME280;43896;48.178;11.578;2023-05-02T07:53:04;96214.91;;;12.71;70.56
58092;BME280;43896;48.178;11.578;2023-05-02T07:55:29;96208.63;;;12.81;70.80
58092;BME280;43896;48.178;11.578;2023-05-02T07:57:57;96203.72;;;13.02;70.17
58092;BME280;43896;48.178;11.578;2023-05-02T08:00:22;96211.84;;;13.17;69.43
58092;BME280;43896;48.178;11.578;2023-05-02T08:02:48;96235.94;;;13.39;68.32
58092;BME280;43896;48.178;11.578;2023-05-02T08:05:13;96232.31;;;13.48;68.00
58092;BME280;43896;48.178;11.578;2023-05-02T08:07:38;96212.34;;;13.45;68.15
58092;BME280;43896;48.178;11.578;2023-05-02T08:10:05;96190.22;;;13.38;67.80
58092;BME280;43896;48.178;11.578;2023-05-02T08:12:30;96158.81;;;13.27;68.13
58092;BME280;43896;48.178;11.578;2023-05-02T08:14:56;96182.13;;;13.48;67.33
58092;BME280;43896;48.178;11.578;2023-05-02T08:17:21;96219.88;;;13.81;67.68
58092;BME280;43896;48.178;11.578;2023-05-02T08:19:47;96179.28;;;13.66;66.59
58092;BME280;43896;48.178;11.578;2023-05-02T08:22:12;96173.31;;;13.72;66.01
58092;BME280;43896;48.178;11.578;2023-05-02T08:24:37;96239.63;;;14.18;67.15
58092;BME280;43896;48.178;11.578;2023-05-02T08:27:03;96208.19;;;13.67;66.88
58092;BME280;43896;48.178;11.578;2023-05-02T08:29:29;96231.53;;;14.12;66.14
58092;BME280;43896;48.178;11.578;2023-05-02T08:31:55;96234.97;;;14.20;66.57
58092;BME280;43896;48.178;11.578;2023-05-02T08:34:21;96221.47;;;14.07;66.47
58092;BME280;43896;48.178;11.578;2023-05-02T08:36:46;96244.84;;;14.26;66.75
58092;BME280;43896;48.178;11.578;2023-05-02T08:39:12;96225.88;;;14.15;65.39
58092;BME280;43896;48.178;11.578;2023-05-02T08:41:37;96209.31;;;13.81;67.10
58092;BME280;43896;48.178;11.578;2023-05-02T08:44:02;96225.09;;;14.06;67.01
58092;BME280;43896;48.178;11.578;2023-05-02T08:46:29;96174.34;;;13.22;69.95
58092;BME280;43896;48.178;11.578;2023-05-02T08:48:57;96216.59;;;12.89;71.80
58092;BME280;43896;48.178;11.578;2023-05-02T08:51:23;96218.25;;;13.64;68.75
58092;BME280;43896;48.178;11.578;2023-05-02T08:53:51;96203.66;;;13.93;66.41
58092;BME280;43896;48.178;11.578;2023-05-02T08:56:18;96193.88;;;14.01;65.88
58092;BME280;43896;48.178;11.578;2023-05-02T08:58:44;96211.56;;;14.40;64.98
58092;BME280;43896;48.178;11.578;2023-05-02T09:01:15;96251.22;;;14.01;66.34
58092;BME280;43896;48.178;11.578;2023-05-02T09:03:46;96264.03;;;13.48;68.88
58092;BME280;43896;48.178;11.578;2023-05-02T09:06:14;96221.63;;;14.05;67.12
58092;BME280;43896;48.178;11.578;2023-05-02T09:08:41;96226.94;;;14.45;65.27
58092;BME280;43896;48.178;11.578;2023-05-02T09:11:08;96241.06;;;14.69;65.21
58092;BME280;43896;48.178;11.578;2023-05-02T09:13:41;96264.28;;;14.90;64.29
58092;BME280;43896;48.178;11.578;2023-05-02T09:16:12;96273.72;;;14.92;64.78
58092;BME280;43896;48.178;11.578;2023-05-02T09:18:39;96194.75;;;14.25;66.18
58092;BME280;43896;48.178;11.578;2023-05-02T09:21:13;96257.75;;;14.30;67.04
58092;BME280;43896;48.178;11.578;2023-05-02T09:23:43;96236.53;;;14.46;66.36
58092;BME280;43896;48.178;11.578;2023-05-02T09:28:40;96264.66;;;15.10;63.82
58092;BME280;43896;48.178;11.578;2023-05-02T09:31:10;96258.34;;;14.48;67.29
58092;BME280;43896;48.178;11.578;2023-05-02T09:33:36;96271.28;;;15.06;64.69
58092;BME280;43896;48.178;11.578;2023-05-02T09:36:02;96250.47;;;15.03;63.01
58092;BME280;43896;48.178;11.578;2023-05-02T09:38:28;96221.78;;;14.83;62.25
58092;BME280;43896;48.178;11.578;2023-05-02T09:40:53;96238.63;;;14.59;64.34
58092;BME280;43896;48.178;11.578;2023-05-02T09:43:22;96236.25;;;14.72;63.42
58092;BME280;43896;48.178;11.578;2023-05-02T09:46:07;96279.38;;;14.41;64.22
58092;BME280;43896;48.178;11.578;2023-05-02T09:48:54;96279.41;;;14.81;64.12
58092;BME280;43896;48.178;11.578;2023-05-02T09:51:20;96273.72;;;15.15;63.01
58092;BME280;43896;48.178;11.578;2023-05-02T09:54:04;96269.25;;;14.61;63.95
58092;BME280;43896;48.178;11.578;2023-05-02T09:56:29;96254.09;;;14.78;62.14
58092;BME280;43896;48.178;11.578;2023-05-02T09:59:14;96235.16;;;14.11;65.28
58092;BME280;43896;48.178;11.578;2023-05-02T10:01:40;96238.72;;;14.34;63.74
58092;BME280;43896;48.178;11.578;2023-05-02T10:04:12;96224.00;;;14.71;61.80
58092;BME280;43896;48.178;11.578;2023-05-02T10:06:43;96260.34;;;15.09;60.50
58092;BME280;43896;48.178;11.578;2023-05-02T10:09:09;96274.78;;;14.75;63.32
58092;BME280;43896;48.178;11.578;2023-05-02T10:11:37;96260.81;;;14.02;65.33
58092;BME280;43896;48.178;11.578;2023-05-02T10:14:04;96265.03;;;14.28;65.25
58092;BME280;43896;48.178;11.578;2023-05-02T10:16:35;96246.88;;;14.16;64.58
58092;BME280;43896;48.178;11.578;2023-05-02T10:19:06;96262.13;;;14.54;64.25
58092;BME280;43896;48.178;11.578;2023-05-02T10:21:33;96265.16;;;14.82;64.17
58092;BME280;43896;48.178;11.578;2023-05-02T10:23:59;96236.91;;;14.35;64.29
58092;BME280;43896;48.178;11.578;2023-05-02T10:26:27;96247.44;;;14.43;64.46
58092;BME280;43896;48.178;11.578;2023-05-02T10:28:55;96272.72;;;14.54;64.06
58092;BME280;43896;48.178;11.578;2023-05-02T10:31:20;96253.84;;;14.09;64.93
58092;BME280;43896;48.178;11.578;2023-05-02T10:33:49;96276.06;;;13.67;67.92
58092;BME280;43896;48.178;11.578;2023-05-02T10:36:20;96268.81;;;13.36;68.87
58092;BME280;43896;48.178;11.578;2023-05-02T10:38:46;96244.19;;;13.19;68.85
58092;BME280;43896;48.178;11.578;2023-05-02T10:41:18;96252.94;;;13.69;67.86
58092;BME280;43896;48.178;11.578;2023-05-02T10:43:47;96253.25;;;13.82;68.97
58092;BME280;43896;48.178;11.578;2023-05-02T10:46:35;96252.78;;;13.46;69.22
58092;BME280;43896;48.178;11.578;2023-05-02T10:49:03;96234.81;;;13.33;69.06
58092;BME280;43896;48.178;11.578;2023-05-02T10:51:30;96256.81;;;14.06;67.51
58092;BME280;43896;48.178;11.578;2023-05-02T10:59:27;96246.69;;;12.62;74.10
58092;BME280;43896;48.178;11.578;2023-05-02T11:01:53;96265.88;;;12.64;74.98
58092;BME280;43896;48.178;11.578;2023-05-02T11:04:18;96281.56;;;12.82;74.87
58092;BME280;43896;48.178;11.578;2023-05-02T11:11:50;96254.59;;;13.21;72.58
58092;BME280;43896;48.178;11.578;2023-05-02T11:19:27;96264.50;;;13.19;75.50
58092;BME280;43896;48.178;11.578;2023-05-02T11:24:51;96267.78;;;13.78;73.89
58092;BME280;43896;48.178;11.578;2023-05-02T11:29:55;96269.34;;;14.29;69.66
58092;BME280;43896;48.178;11.578;2023-05-02T11:32:22;96260.91;;;13.44;73.82
58092;BME280;43896;48.178;11.578;2023-05-02T11:34:48;96285.00;;;13.74;73.23
58092;BME280;43896;48.178;11.578;2023-05-02T11:37:17;96287.66;;;13.49;73.71
58092;BME280;43896;48.178;11.578;2023-05-02T11:39:44;96296.03;;;13.86;72.33
58092;BME280;43896;48.178;11.578;2023-05-02T11:42:30;96279.28;;;14.18;70.84
58092;BME280;43896;48.178;11.578;2023-05-02T11:44:59;96239.47;;;14.12;70.43
58092;BME280;43896;48.178;11.578;2023-05-02T11:47:25;96283.28;;;14.62;68.25
58092;BME280;43896;48.178;11.578;2023-05-02T11:49:57;96259.16;;;14.49;66.94
58092;BME280;43896;48.178;11.578;2023-05-02T11:52:24;96228.63;;;14.38;66.02
58092;BME280;43896;48.178;11.578;2023-05-02T11:54:53;96213.16;;;14.18;65.86
58092;BME280;43896;48.178;11.578;2023-05-02T11:57:19;96293.59;;;14.40;65.90
58092;BME280;43896;48.178;11.578;2023-05-02T11:59:56;96266.44;;;14.55;65.99
58092;BME280;43896;48.178;11.578;2023-05-02T12:02:42;96220.56;;;14.23;65.16
58092;BME280;43896;48.178;11.578;2023-05-02T12:05:10;96294.19;;;14.98;64.45
58092;BME280;43896;48.178;11.578;2023-05-02T12:07:39;96293.31;;;14.75;65.91
58092;BME280;43896;48.178;11.578;2023-05-02T12:10:08;96246.19;;;14.70;62.98
58092;BME280;43896;48.178;11.578;2023-05-02T12:12:34;96295.69;;;15.01;62.21
58092;BME280;43896;48.178;11.578;2023-05-02T12:15:07;96217.16;;;14.45;63.08
58092;BME280;43896;48.178;11.578;2023-05-02T12:17:36;96204.66;;;14.31;64.61
58092;BME280;43896;48.178;11.578;2023-05-02T12:20:03;96290.56;;;14.99;64.19
58092;BME280;43896;48.178;11.578;2023-05-02T12:22:29;96231.34;;;14.61;65.09
58092;BME280;43896;48.178;11.578;2023-05-02T12:24:55;96244.50;;;14.38;65.78
58092;BME280;43896;48.178;11.578;2023-05-02T12:27:21;96274.69;;;14.91;65.17
58092;BME280;43896;48.178;11.578;2023-05-02T12:29:47;96267.66;;;14.84;64.93
58092;BME280;43896;48.178;11.578;2023-05-02T12:32:14;96269.88;;;14.95;64.41
58092;BME280;43896;48.178;11.578;2023-05-02T12:34:43;96284.28;;;15.24;63.86
58092;BME280;43896;48.178;11.578;2023-05-02T12:37:08;96293.38;;;15.21;64.34
58092;BME280;43896;48.178;11.578;2023-05-02T12:39:41;96278.25;;;14.84;65.50
58092;BME280;43896;48.178;11.578;2023-05-02T12:42:16;96227.44;;;14.80;63.94
58092;BME280;43896;48.178;11.578;2023-05-02T12:44:46;96215.81;;;14.89;63.82
58092;BME280;43896;48.178;11.578;2023-05-02T12:47:15;96282.84;;;15.36;63.15
58092;BME280;43896;48.178;11.578;2023-05-02T12:49:50;96274.69;;;14.52;66.04
58092;BME280;43896;48.178;11.578;2023-05-02T12:52:20;96265.69;;;14.30;66.50
58092;BME280;43896;48.178;11.578;2023-05-02T12:54:46;96298.81;;;14.73;64.84
58092;BME280;43896;48.178;11.578;2023-05-02T12:57:24;96293.94;;;15.16;63.59
58092;BME280;43896;48.178;11.578;2023-05-02T12:59:53;96279.06;;;15.07;63.36
58092;BME280;43896;48.178;11.578;2023-05-02T13:02:19;96259.19;;;15.11;62.46
58092;BME280;43896;48.178;11.578;2023-05-02T13:04:45;96296.88;;;15.68;62.44
58092;BME280;43896;48.178;11.578;2023-05-02T13:07:11;96263.84;;;15.70;59.69
58092;BME280;43896;48.178;11.578;2023-05-02T13:09:36;96293.50;;;15.97;59.17
58092;BME280;43896;48.178;11.578;2023-05-02T13:12:02;96281.03;;;15.98;58.65
58092;BME280;43896;48.178;11.578;2023-05-02T13:14:28;96275.13;;;15.26;60.36
58092;BME280;43896;48.178;11.578;2023-05-02T13:16:53;96285.72;;;15.72;59.32
58092;BME280;43896;48.178;11.578;2023-05-02T13:19:22;96281.13;;;15.89;58.81
58092;BME280;43896;48.178;11.578;2023-05-02T13:21:47;96285.81;;;16.02;59.43
58092;BME280;43896;48.178;11.578;2023-05-02T13:24:13;96274.53;;;16.00;60.80
58092;BME280;43896;48.178;11.578;2023-05-02T13:26:42;96286.72;;;16.09;59.59
58092;BME280;43896;48.178;11.578;2023-05-02T13:29:07;96284.16;;;15.63;61.92
58092;BME280;43896;48.178;11.578;2023-05-02T13:31:36;96291.44;;;15.84;60.39
58092;BME280;43896;48.178;11.578;2023-05-02T13:34:02;96286.56;;;15.73;65.15
58092;BME280;43896;48.178;11.578;2023-05-02T13:36:28;96284.72;;;15.04;63.65
58092;BME280;43896;48.178;11.578;2023-05-02T13:38:53;96282.91;;;15.51;63.26
58092;BME280;43896;48.178;11.578;2023-05-02T13:41:18;96292.84;;;15.49;61.60